Nyk Romulus — 9V7644 — position and weather

sailwx.info

Track history (hours):
 
Tides and Currents Weather Stations Pressure Air Temp Water Temp Dewpoint Dewpoint Depression Visibility Wind Speed Wind Dir Waves Ship Positions

Nyk Romulus

Last reported at 2017-Oct-16 06:39 UTC. Time now 2017-Oct-22 19:08 UTC.
Position N 26°09' W 114°29'.

Length 294 m; draft 10.8 m.

Type: Cargo ship. MMSI: 563079000.

Date/timePositionNaut miles runAvg speedWind from/ knotsBaromVisibWave heightAir tempDewpointWater temp
2017-Oct-16 06:39N 26°09' W 114°29'320.0
2017-Oct-16 06:31N 26°12' W 114°31'1020.0
2017-Oct-16 06:01N 26°20' W 114°37'1420.3
2017-Oct-16 05:19N 26°31' W 114°47'1420.2
2017-Oct-16 04:39N 26°42' W 114°56'320.2
2017-Oct-16 04:31N 26°44' W 114°57'8219.8
2017-Oct-16 00:22N 27°50' W 115°52'719.8
2017-Oct-16 00:00N 27°57' W 115°56'1019.8
2017-Oct-15 23:30N 28°05' W 116°02'1019.6
2017-Oct-15 22:59N 28°15' W 116°05'919.7
2017-Oct-15 22:31N 28°24' W 116°09'1019.8
2017-Oct-15 22:01N 28°33' W 116°12'3119.8
2017-Oct-15 20:28N 29°02' W 116°24'919.6
2017-Oct-15 19:59N 29°11' W 116°27'1319.7
2017-Oct-15 19:19N 29°23' W 116°32'2619.5
2017-Oct-15 17:58N 29°48' W 116°42'1519.0
2017-Oct-15 17:10N 30°03' W 116°48'319.0
2017-Oct-15 16:59N 30°06' W 116°49'919.4
2017-Oct-15 16:30N 30°15' W 116°53'1019.4
2017-Oct-15 16:00N 30°24' W 116°56'1019.4
2017-Oct-15 15:31N 30°33' W 116°60'1420.1
2017-Oct-15 14:48N 30°46' W 117°05'1620.3
2017-Oct-15 14:00N 31°02' W 117°11'1020.1
2017-Oct-15 13:31N 31°11' W 117°15'1020.4
2017-Oct-15 13:00N 31°21' W 117°19'1020.3
2017-Oct-15 12:31N 31°30' W 117°23'1020.2
2017-Oct-15 12:01N 31°40' W 117°26'1020.1
2017-Oct-15 11:31N 31°49' W 117°30'1020.1
2017-Oct-15 11:01N 31°59' W 117°33'1019.9
2017-Oct-15 10:31N 32°08' W 117°37'1019.4
2017-Oct-15 10:01N 32°18' W 117°41'1019.1
2017-Oct-15 09:31N 32°26' W 117°45'713.8
2017-Oct-15 09:01N 32°33' W 117°48'611.4
2017-Oct-15 08:31N 32°38' W 117°50'611.4
2017-Oct-15 08:00N 32°44' W 117°52'611.3
2017-Oct-15 07:30N 32°49' W 117°54'611.7
2017-Oct-15 07:01N 32°55' W 117°56'611.6
2017-Oct-15 06:31N 33°00' W 117°58'611.7
2017-Oct-15 06:00N 33°06' W 118°01'611.6
2017-Oct-15 05:31N 33°11' W 118°03'611.5
2017-Oct-15 05:00N 33°17' W 118°05'611.5
2017-Oct-15 04:31N 33°22' W 118°08'611.8
2017-Oct-15 04:01N 33°28' W 118°10'611.8
2017-Oct-15 03:30N 33°33' W 118°12'510.4
2017-Oct-15 03:00N 33°38' W 118°12'4 7.8
2017-Oct-15 02:30N 33°42' W 118°11'2 4.8
2017-Oct-15 02:01N 33°45' W 118°12'0 0.6
2017-Oct-15 01:29N 33°45' W 118°12'0 0.0
2017-Oct-15 00:59N 33°45' W 118°12'0 0.0
2017-Oct-15 00:29N 33°45' W 118°12'0 0.0
2017-Oct-14 23:59N 33°45' W 118°12'0 0.0
2017-Oct-14 23:29N 33°45' W 118°12'0 0.0
2017-Oct-14 22:59N 33°45' W 118°12'0 0.0
2017-Oct-14 22:29N 33°45' W 118°12'0 0.0
2017-Oct-14 21:59N 33°45' W 118°12'0 0.0
2017-Oct-14 21:26N 33°45' W 118°12'0 0.0
2017-Oct-14 20:59N 33°45' W 118°12'0 0.0
2017-Oct-14 20:29N 33°45' W 118°12'0 0.0
2017-Oct-14 19:56N 33°45' W 118°12'0 0.0
2017-Oct-14 19:29N 33°45' W 118°12'0 0.0
2017-Oct-14 18:59N 33°45' W 118°12'0 0.1
2017-Oct-14 18:26N 33°45' W 118°12'0 0.1
2017-Oct-14 17:59N 33°45' W 118°12'0 0.0
2017-Oct-14 17:29N 33°45' W 118°12'0 0.0
2017-Oct-14 16:59N 33°45' W 118°12'0 0.0
2017-Oct-14 16:26N 33°45' W 118°12'0 0.0
2017-Oct-14 15:59N 33°45' W 118°12'0 0.0
2017-Oct-14 15:26N 33°45' W 118°12'0 0.0
2017-Oct-14 14:53N 33°45' W 118°12'0 0.0
2017-Oct-14 14:23N 33°45' W 118°12'0 0.0
2017-Oct-14 13:59N 33°45' W 118°12'0 0.6
2017-Oct-14 13:30N 33°45' W 118°12'3 5.6
2017-Oct-14 13:00N 33°42' W 118°11'4 8.1
2017-Oct-14 12:30N 33°39' W 118°13'4 8.4
2017-Oct-14 12:00N 33°36' W 118°18'5 9.8
2017-Oct-14 11:30N 33°37' W 118°23'510.1
2017-Oct-14 11:00N 33°40' W 118°28'510.2
2017-Oct-14 10:31N 33°42' W 118°34'611.4
2017-Oct-14 10:00N 33°45' W 118°40'611.6
2017-Oct-14 09:30N 33°48' W 118°46'612.0
2017-Oct-14 09:00N 33°51' W 118°52'612.1
2017-Oct-14 08:30N 33°54' W 118°58'612.3
2017-Oct-14 08:00N 33°57' W 119°05'713.3
2017-Oct-14 07:30N 34°01' W 119°12'713.3
2017-Oct-14 07:00N 34°03' W 119°19'713.6
2017-Oct-14 06:30N 34°05' W 119°27'713.3
2017-Oct-14 06:00N 34°07' W 119°35'713.8
2017-Oct-14 05:30N 34°09' W 119°43'714.4
2017-Oct-14 05:00N 34°10' W 119°51'714.7
2017-Oct-14 04:30N 34°12' W 119°60'713.6
2017-Oct-14 04:00N 34°14' W 120°08'815.7
2017-Oct-14 03:31N 34°16' W 120°17'815.7
2017-Oct-14 02:59N 34°18' W 120°26'714.7
2017-Oct-14 02:30N 34°20' W 120°35'714.4
2017-Oct-14 02:00N 34°22' W 120°43'814.4
2017-Oct-14 01:27N 34°24' W 120°52'814.2
2017-Oct-14 00:53N 34°30' W 120°59'814.5
2017-Oct-14 00:19N 34°36' W 121°05'515.1
2017-Oct-14 00:00N 34°40' W 121°09'816.1
2017-Oct-13 23:30N 34°47' W 121°14'816.0
2017-Oct-13 23:00N 34°53' W 121°20'816.2
2017-Oct-13 22:30N 34°60' W 121°26'816.5
2017-Oct-13 22:00N 35°06' W 121°32'816.7
2017-Oct-13 21:30N 35°13' W 121°38'917.1
2017-Oct-13 21:00N 35°20' W 121°44'917.8
2017-Oct-13 20:30N 35°27' W 121°50'917.7
2017-Oct-13 20:00N 35°35' W 121°57'917.5
2017-Oct-13 19:30N 35°42' W 122°02'918.2
2017-Oct-13 19:00N 35°51' W 122°06'918.4
2017-Oct-13 18:30N 35°59' W 122°10'918.2
2017-Oct-13 18:00N 36°08' W 122°14'918.0
2017-Oct-13 17:30N 36°16' W 122°18'1517.6
2017-Oct-13 16:39N 36°30' W 122°25'317.6
2017-Oct-13 16:30N 36°33' W 122°26'917.7
2017-Oct-13 16:00N 36°41' W 122°30'917.8
2017-Oct-13 15:30N 36°49' W 122°34'917.6
2017-Oct-13 15:00N 36°58' W 122°37'917.9
2017-Oct-13 14:30N 37°06' W 122°40'917.7
2017-Oct-13 14:00N 37°15' W 122°43'917.8
2017-Oct-13 13:31N 37°24' W 122°44'917.8
2017-Oct-13 13:00N 37°33' W 122°44'917.2
2017-Oct-13 12:30N 37°41' W 122°42'611.5
2017-Oct-13 12:00N 37°46' W 122°39'714.3
2017-Oct-13 11:30N 37°49' W 122°30'611.0
2017-Oct-13 11:00N 37°49' W 122°23'4 7.9
2017-Oct-13 10:30N 37°48' W 122°19'1 1.2
2017-Oct-13 10:01N 37°48' W 122°18'1 2.1
2017-Oct-13 09:29N 37°48' W 122°19'0 0.0
2017-Oct-13 08:59N 37°48' W 122°19'0 0.0
2017-Oct-13 08:29N 37°48' W 122°19'0 0.0
2017-Oct-13 07:59N 37°48' W 122°19'0 0.0
2017-Oct-13 07:29N 37°48' W 122°19'0 0.0
2017-Oct-13 06:59N 37°48' W 122°19'0 0.0
2017-Oct-13 06:29N 37°48' W 122°19'0 0.0
2017-Oct-13 05:59N 37°48' W 122°19'0 0.0
2017-Oct-13 05:29N 37°48' W 122°19'0 0.0
2017-Oct-13 04:59N 37°48' W 122°19'0 0.0
2017-Oct-13 04:29N 37°48' W 122°19'0 0.0
2017-Oct-13 03:59N 37°48' W 122°19'0 0.0
2017-Oct-13 03:29N 37°48' W 122°19'0 0.0
2017-Oct-13 02:59N 37°48' W 122°19'0 0.0
2017-Oct-13 02:29N 37°48' W 122°19'0 0.0
2017-Oct-13 01:59N 37°48' W 122°19'0 0.0
2017-Oct-13 01:29N 37°48' W 122°19'0 0.0
2017-Oct-13 00:59N 37°48' W 122°19'0 0.0
2017-Oct-13 00:29N 37°48' W 122°19'0 0.0
2017-Oct-12 23:59N 37°48' W 122°19'0 0.0
2017-Oct-12 23:29N 37°48' W 122°19'0 0.0
2017-Oct-12 22:59N 37°48' W 122°19'0 0.0
2017-Oct-12 22:29N 37°48' W 122°19'0 0.0
2017-Oct-12 21:59N 37°48' W 122°19'0 0.0
2017-Oct-12 21:29N 37°48' W 122°19'0 0.0
2017-Oct-12 20:59N 37°48' W 122°19'0 0.0
2017-Oct-12 20:29N 37°48' W 122°19'0 0.0
2017-Oct-12 19:59N 37°48' W 122°19'0 0.0
2017-Oct-12 19:29N 37°48' W 122°19'0 0.0
2017-Oct-12 18:59N 37°48' W 122°19'0 0.0
2017-Oct-12 18:29N 37°48' W 122°19'0 0.0
2017-Oct-12 17:59N 37°48' W 122°19'0 0.0
2017-Oct-12 17:29N 37°48' W 122°19'0 0.0
2017-Oct-12 16:59N 37°48' W 122°19'0 0.0
2017-Oct-12 16:29N 37°48' W 122°19'0 0.0
2017-Oct-12 15:59N 37°48' W 122°19'0 0.0
2017-Oct-12 15:29N 37°48' W 122°19'0 0.0
2017-Oct-12 14:59N 37°48' W 122°19'0 0.0
2017-Oct-12 14:29N 37°48' W 122°19'0 0.0
2017-Oct-12 13:59N 37°48' W 122°19'0 0.0
2017-Oct-12 13:29N 37°48' W 122°19'0 0.0
2017-Oct-12 12:59N 37°48' W 122°19'0 0.0
2017-Oct-12 12:29N 37°48' W 122°19'0 0.0
2017-Oct-12 11:59N 37°48' W 122°19'1 2.4
2017-Oct-12 11:31N 37°48' W 122°21'4 8.7
2017-Oct-12 11:01N 37°49' W 122°26'4 8.6
2017-Oct-12 10:31N 37°48' W 122°31'714.1
2017-Oct-12 10:00N 37°46' W 122°40'4 7.8
2017-Oct-12 09:30N 37°46' W 122°45'510.4
2017-Oct-12 09:00N 37°48' W 122°51'510.7
2017-Oct-12 08:30N 37°51' W 122°57'611.1
2017-Oct-12 08:00N 37°53' W 123°03'612.0
2017-Oct-12 07:30N 37°57' W 123°09'612.2
2017-Oct-12 07:00N 38°01' W 123°15'612.7
2017-Oct-12 06:30N 38°06' W 123°20'612.6
2017-Oct-12 06:00N 38°10' W 123°25'612.4
2017-Oct-12 05:30N 38°15' W 123°30'612.8
2017-Oct-12 05:00N 38°20' W 123°35'613.0
2017-Oct-12 04:30N 38°25' W 123°40'612.5
2017-Oct-12 04:00N 38°30' W 123°45'612.7
2017-Oct-12 03:30N 38°35' W 123°50'713.1
2017-Oct-12 03:00N 38°40' W 123°56'612.9
2017-Oct-12 02:30N 38°45' W 124°01'39914.6
2017-Oct-10 23:11N 45°20' W 125°18'214.8
2017-Oct-10 23:00N 45°22' W 125°18'814.8
2017-Oct-10 22:30N 45°30' W 125°18'715.0
2017-Oct-10 22:00N 45°37' W 125°18'715.0
2017-Oct-10 21:30N 45°45' W 125°19'814.9
2017-Oct-10 21:00N 45°52' W 125°19'714.8
2017-Oct-10 20:30N 45°60' W 125°19'815.3
2017-Oct-10 20:01N 46°07' W 125°19'815.2
2017-Oct-10 19:30N 46°15' W 125°19'715.0
2017-Oct-10 19:01N 46°22' W 125°20'815.6
2017-Oct-10 18:30N 46°30' W 125°20'815.6
2017-Oct-10 18:00N 46°38' W 125°20'815.4
2017-Oct-10 17:30N 46°45' W 125°20'815.5
2017-Oct-10 17:00N 46°53' W 125°20'7016.5
2017-Oct-10 12:47N 48°03' W 125°24'716.5
2017-Oct-10 12:20N 48°10' W 125°24'513.9
2017-Oct-10 11:58N 48°15' W 125°21'715.0
2017-Oct-10 11:30N 48°20' W 125°14'815.4
2017-Oct-10 11:00N 48°26' W 125°07'713.3
2017-Oct-10 10:30N 48°30' W 124°59'714.1
2017-Oct-10 10:00N 48°31' W 124°49'714.8
2017-Oct-10 09:31N 48°29' W 124°38'815.2
2017-Oct-10 09:01N 48°26' W 124°27'815.8
2017-Oct-10 08:31N 48°23' W 124°16'815.9
2017-Oct-10 08:00N 48°20' W 124°05'816.0
2017-Oct-10 07:30N 48°17' W 123°54'917.7
2017-Oct-10 07:01N 48°16' W 123°41'815.8
2017-Oct-10 06:30N 48°18' W 123°29'713.6
2017-Oct-10 06:00N 48°23' W 123°23'815.3
2017-Oct-10 05:31N 48°25' W 123°12'1121.9
2017-Oct-10 05:01N 48°36' W 123°14'916.9
2017-Oct-10 04:30N 48°44' W 123°09'815.3
2017-Oct-10 04:00N 48°51' W 123°03'1020.2
2017-Oct-10 03:30N 48°57' W 123°15'917.5
2017-Oct-10 03:00N 49°04' W 123°22'612.3
2017-Oct-10 02:30N 49°08' W 123°15'510.1
2017-Oct-10 02:00N 49°07' W 123°07'5 9.8
2017-Oct-10 01:30N 49°09' W 123°01'4 8.0
2017-Oct-10 01:00N 49°11' W 122°55'0 0.3
2017-Oct-10 00:30N 49°11' W 122°55'0 0.0
2017-Oct-10 00:00N 49°11' W 122°55'0 0.0
2017-Oct-09 23:30N 49°11' W 122°55'0 0.0
2017-Oct-09 23:00N 49°11' W 122°55'0 0.0
2017-Oct-09 22:27N 49°11' W 122°55'0 0.0
2017-Oct-09 22:00N 49°11' W 122°55'0 0.0
2017-Oct-09 21:30N 49°11' W 122°55'0 0.0
2017-Oct-09 21:00N 49°11' W 122°55'0 0.0
2017-Oct-09 20:30N 49°11' W 122°55'0 0.0
2017-Oct-09 20:00N 49°11' W 122°55'0 0.0
2017-Oct-09 19:30N 49°11' W 122°55'0 0.0
2017-Oct-09 19:00N 49°11' W 122°55'0 0.0
2017-Oct-09 18:27N 49°11' W 122°55'0 0.0
2017-Oct-09 18:00N 49°11' W 122°55'0 0.0
2017-Oct-09 17:30N 49°11' W 122°55'0 0.0
2017-Oct-09 17:00N 49°11' W 122°55'0 0.0
2017-Oct-09 16:30N 49°11' W 122°55'0 0.0
2017-Oct-09 16:00N 49°11' W 122°55'0 0.0
2017-Oct-09 15:30N 49°11' W 122°55'0 0.0
2017-Oct-09 15:00N 49°11' W 122°55'0 0.0
2017-Oct-09 14:30N 49°11' W 122°55'0 0.0
2017-Oct-09 14:00N 49°11' W 122°55'0 0.0
2017-Oct-09 13:30N 49°11' W 122°55'0 0.0
2017-Oct-09 13:00N 49°11' W 122°55'2 3.5
2017-Oct-09 12:30N 49°10' W 122°56'5 9.6
2017-Oct-09 12:00N 49°08' W 123°03'510.5
2017-Oct-09 11:30N 49°07' W 123°11'510.8
2017-Oct-09 11:00N 49°06' W 123°19'4 7.8
2017-Oct-09 10:31N 49°02' W 123°18'612.2
2017-Oct-09 10:01N 48°58' W 123°11'713.8
2017-Oct-09 09:30N 48°53' W 123°04'714.9
2017-Oct-09 09:00N 48°45' W 123°04'917.1
2017-Oct-09 08:30N 48°41' W 123°15'917.8
2017-Oct-09 08:00N 48°32' W 123°12'815.9
2017-Oct-09 07:30N 48°24' W 123°12'714.4
2017-Oct-09 07:00N 48°22' W 123°22'5 9.1
2017-Oct-09 06:30N 48°18' W 123°25'4 7.4
2017-Oct-09 06:00N 48°14' W 123°27'4 8.2
2017-Oct-09 05:30N 48°11' W 123°24'611.6
2017-Oct-09 05:00N 48°10' W 123°16'1020.4
2017-Oct-09 04:30N 48°12' W 123°01'1121.4
2017-Oct-09 04:00N 48°10' W 122°45'1121.1
2017-Oct-09 03:30N 48°01' W 122°37'1020.3
2017-Oct-09 03:00N 47°53' W 122°28'918.6
2017-Oct-09 02:30N 47°44' W 122°27'918.0
2017-Oct-09 02:00N 47°35' W 122°27'918.0
2017-Oct-09 01:30N 47°26' W 122°23'816.0
2017-Oct-09 01:00N 47°19' W 122°27'3 4.7
2017-Oct-09 00:25N 47°16' W 122°25'0 0.0
2017-Oct-08 23:55N 47°16' W 122°25'0 0.0
2017-Oct-08 23:22N 47°16' W 122°25'0 0.0
2017-Oct-08 22:55N 47°16' W 122°25'0 0.0
2017-Oct-08 22:28N 47°16' W 122°25'0 0.0
2017-Oct-08 21:58N 47°16' W 122°25'0 0.0
2017-Oct-08 21:25N 47°16' W 122°25'0 0.0
2017-Oct-08 20:58N 47°16' W 122°25'0 0.0
2017-Oct-08 20:28N 47°16' W 122°25'0 0.0
2017-Oct-08 19:58N 47°16' W 122°25'0 0.0
2017-Oct-08 19:28N 47°16' W 122°25'0 0.0
2017-Oct-08 18:58N 47°16' W 122°25'0 0.0
2017-Oct-08 18:28N 47°16' W 122°25'0 0.0
2017-Oct-08 17:58N 47°16' W 122°25'0 0.0
2017-Oct-08 17:28N 47°16' W 122°25'0 0.0
2017-Oct-08 16:58N 47°16' W 122°25'0 0.0
2017-Oct-08 16:28N 47°16' W 122°25'0 0.0
2017-Oct-08 15:58N 47°16' W 122°25'0 0.0
2017-Oct-08 15:28N 47°16' W 122°25'0 0.0
2017-Oct-08 14:58N 47°16' W 122°25'0 0.0
2017-Oct-08 14:28N 47°16' W 122°25'0 0.0
2017-Oct-08 13:58N 47°16' W 122°25'0 0.0
2017-Oct-08 13:28N 47°16' W 122°25'0 0.0
2017-Oct-08 12:58N 47°16' W 122°25'1 1.3
2017-Oct-08 12:30N 47°17' W 122°25'3 6.8
2017-Oct-08 12:00N 47°20' W 122°27'713.1
2017-Oct-08 11:31N 47°26' W 122°24'1020.7
2017-Oct-08 11:00N 47°36' W 122°28'1020.1
2017-Oct-08 10:30N 47°46' W 122°27'1020.3
2017-Oct-08 10:01N 47°56' W 122°31'1020.1
2017-Oct-08 09:30N 48°04' W 122°40'1020.3
2017-Oct-08 09:00N 48°11' W 122°51'1019.6
2017-Oct-08 08:31N 48°13' W 123°05'918.4
2017-Oct-08 08:01N 48°12' W 123°19'510.3
2017-Oct-08 07:30N 48°11' W 123°27'611.4
2017-Oct-08 07:00N 48°13' W 123°35'713.9
2017-Oct-08 06:30N 48°13' W 123°45'712.8
2017-Oct-08 05:59N 48°13' W 123°55'713.7
2017-Oct-08 05:30N 48°16' W 124°04'713.5
2017-Oct-08 05:00N 48°19' W 124°13'713.7
2017-Oct-08 04:30N 48°22' W 124°23'713.8
2017-Oct-08 04:00N 48°25' W 124°32'713.4
2017-Oct-08 03:30N 48°28' W 124°41'714.0
2017-Oct-08 03:00N 48°29' W 124°52'713.9
2017-Oct-08 02:30N 48°26' W 125°02'815.3
2017-Oct-08 02:00N 48°19' W 125°05'814.9
2017-Oct-08 01:28N 48°12' W 125°11'9114.0
2017-Oct-07 18:57N 46°41' W 125°20'614.4
2017-Oct-07 18:30N 46°35' W 125°20'714.4
2017-Oct-07 18:00N 46°27' W 125°20'714.3
2017-Oct-07 17:30N 46°20' W 125°20'1714.7
2017-Oct-07 16:21N 46°03' W 125°19'615.6
2017-Oct-07 15:58N 45°57' W 125°19'816.1
2017-Oct-07 15:30N 45°50' W 125°19'1019.4
2017-Oct-07 15:01N 45°40' W 125°18'1019.5
2017-Oct-07 14:30N 45°31' W 125°18'1019.0
2017-Oct-07 13:58N 45°20' W 125°18'919.1
2017-Oct-07 13:30N 45°11' W 125°18'1019.1
2017-Oct-07 12:59N 45°01' W 125°17'7119.3
2017-Oct-07 09:20N 43°51' W 125°15'720.1
2017-Oct-07 08:59N 43°44' W 125°16'3420.6
2017-Oct-07 07:21N 43°10' W 125°14'6020.0
2017-Oct-07 04:22N 42°11' W 125°12'718.8
2017-Oct-07 04:00N 42°04' W 125°13'1019.4
2017-Oct-07 03:29N 41°54' W 125°12'919.8
2017-Oct-07 03:00N 41°44' W 125°12'1019.3
2017-Oct-07 02:30N 41°35' W 125°12'1019.8
2017-Oct-07 02:00N 41°25' W 125°11'1019.6
2017-Oct-07 01:30N 41°15' W 125°11'1019.7
2017-Oct-07 01:00N 41°05' W 125°11'1019.6
2017-Oct-07 00:30N 40°55' W 125°10'1019.2
2017-Oct-07 00:01N 40°46' W 125°10'1019.3
2017-Oct-06 23:31N 40°36' W 125°10'918.9
2017-Oct-06 23:00N 40°27' W 125°09'9619.4
2017-Oct-06 18:04N 38°58' W 124°22'119.8
2017-Oct-06 18:00N 38°57' W 124°21'1419.8
2017-Oct-06 17:17N 38°44' W 124°14'519.5
2017-Oct-06 17:00N 38°39' W 124°11'918.6
2017-Oct-06 16:30N 38°31' W 124°04'1019.2
2017-Oct-06 16:00N 38°26' W 123°54'1019.2
2017-Oct-06 15:30N 38°21' W 123°43'1019.9
2017-Oct-06 15:00N 38°15' W 123°33'1020.0
2017-Oct-06 14:30N 38°10' W 123°22'1019.9
2017-Oct-06 14:00N 38°03' W 123°13'1020.0
2017-Oct-06 13:30N 37°56' W 123°04'1020.5
2017-Oct-06 13:00N 37°51' W 122°52'917.4
2017-Oct-06 12:30N 37°47' W 122°43'510.8
2017-Oct-06 12:00N 37°47' W 122°36'917.4
2017-Oct-06 11:31N 37°51' W 122°26'510.4
2017-Oct-06 11:00N 37°48' W 122°20'1 1.8
2017-Oct-06 10:29N 37°48' W 122°19'0 0.0
2017-Oct-06 09:59N 37°48' W 122°19'0 0.0
2017-Oct-06 09:29N 37°48' W 122°19'0 0.0
2017-Oct-06 08:59N 37°48' W 122°19'0 0.0
2017-Oct-06 08:29N 37°48' W 122°19'0 0.0
2017-Oct-06 07:59N 37°48' W 122°19'0 0.0
2017-Oct-06 07:29N 37°48' W 122°19'0 0.0
2017-Oct-06 06:59N 37°48' W 122°19'  
Track history (hours):
 
Tides and Currents Weather Stations Pressure Air Temp Water Temp Dewpoint Dewpoint Depression Visibility Wind Speed Wind Dir Waves Ship Positions

Nyk Romulus

Last reported at 2017-Oct-16 06:39 UTC. Time now 2017-Oct-22 19:08 UTC.
Position N 26°09' W 114°29'.

Length 294 m; draft 10.8 m.

Type: Cargo ship. MMSI: 563079000.

Date/timePositionNaut miles runAvg speedWind from/ knotsBaromVisibWave heightAir tempDewpointWater temp
2017-Oct-16 06:39N 26°09' W 114°29'320.0
2017-Oct-16 06:31N 26°12' W 114°31'1020.0
2017-Oct-16 06:01N 26°20' W 114°37'1420.3
2017-Oct-16 05:19N 26°31' W 114°47'1420.2
2017-Oct-16 04:39N 26°42' W 114°56'320.2
2017-Oct-16 04:31N 26°44' W 114°57'8219.8
2017-Oct-16 00:22N 27°50' W 115°52'719.8
2017-Oct-16 00:00N 27°57' W 115°56'1019.8
2017-Oct-15 23:30N 28°05' W 116°02'1019.6
2017-Oct-15 22:59N 28°15' W 116°05'919.7
2017-Oct-15 22:31N 28°24' W 116°09'1019.8
2017-Oct-15 22:01N 28°33' W 116°12'3119.8
2017-Oct-15 20:28N 29°02' W 116°24'919.6
2017-Oct-15 19:59N 29°11' W 116°27'1319.7
2017-Oct-15 19:19N 29°23' W 116°32'2619.5
2017-Oct-15 17:58N 29°48' W 116°42'1519.0
2017-Oct-15 17:10N 30°03' W 116°48'319.0
2017-Oct-15 16:59N 30°06' W 116°49'919.4
2017-Oct-15 16:30N 30°15' W 116°53'1019.4
2017-Oct-15 16:00N 30°24' W 116°56'1019.4
2017-Oct-15 15:31N 30°33' W 116°60'1420.1
2017-Oct-15 14:48N 30°46' W 117°05'1620.3
2017-Oct-15 14:00N 31°02' W 117°11'1020.1
2017-Oct-15 13:31N 31°11' W 117°15'1020.4
2017-Oct-15 13:00N 31°21' W 117°19'1020.3
2017-Oct-15 12:31N 31°30' W 117°23'1020.2
2017-Oct-15 12:01N 31°40' W 117°26'1020.1
2017-Oct-15 11:31N 31°49' W 117°30'1020.1
2017-Oct-15 11:01N 31°59' W 117°33'1019.9
2017-Oct-15 10:31N 32°08' W 117°37'1019.4
2017-Oct-15 10:01N 32°18' W 117°41'1019.1
2017-Oct-15 09:31N 32°26' W 117°45'713.8
2017-Oct-15 09:01N 32°33' W 117°48'611.4
2017-Oct-15 08:31N 32°38' W 117°50'611.4
2017-Oct-15 08:00N 32°44' W 117°52'611.3
2017-Oct-15 07:30N 32°49' W 117°54'611.7
2017-Oct-15 07:01N 32°55' W 117°56'611.6
2017-Oct-15 06:31N 33°00' W 117°58'611.7
2017-Oct-15 06:00N 33°06' W 118°01'611.6
2017-Oct-15 05:31N 33°11' W 118°03'611.5
2017-Oct-15 05:00N 33°17' W 118°05'611.5
2017-Oct-15 04:31N 33°22' W 118°08'611.8
2017-Oct-15 04:01N 33°28' W 118°10'611.8
2017-Oct-15 03:30N 33°33' W 118°12'510.4
2017-Oct-15 03:00N 33°38' W 118°12'4 7.8
2017-Oct-15 02:30N 33°42' W 118°11'2 4.8
2017-Oct-15 02:01N 33°45' W 118°12'0 0.6
2017-Oct-15 01:29N 33°45' W 118°12'0 0.0
2017-Oct-15 00:59N 33°45' W 118°12'0 0.0
2017-Oct-15 00:29N 33°45' W 118°12'0 0.0
2017-Oct-14 23:59N 33°45' W 118°12'0 0.0
2017-Oct-14 23:29N 33°45' W 118°12'0 0.0
2017-Oct-14 22:59N 33°45' W 118°12'0 0.0
2017-Oct-14 22:29N 33°45' W 118°12'0 0.0
2017-Oct-14 21:59N 33°45' W 118°12'0 0.0
2017-Oct-14 21:26N 33°45' W 118°12'0 0.0
2017-Oct-14 20:59N 33°45' W 118°12'0 0.0
2017-Oct-14 20:29N 33°45' W 118°12'0 0.0
2017-Oct-14 19:56N 33°45' W 118°12'0 0.0
2017-Oct-14 19:29N 33°45' W 118°12'0 0.0
2017-Oct-14 18:59N 33°45' W 118°12'0 0.1
2017-Oct-14 18:26N 33°45' W 118°12'0 0.1
2017-Oct-14 17:59N 33°45' W 118°12'0 0.0
2017-Oct-14 17:29N 33°45' W 118°12'0 0.0
2017-Oct-14 16:59N 33°45' W 118°12'0 0.0
2017-Oct-14 16:26N 33°45' W 118°12'0 0.0
2017-Oct-14 15:59N 33°45' W 118°12'0 0.0
2017-Oct-14 15:26N 33°45' W 118°12'0 0.0
2017-Oct-14 14:53N 33°45' W 118°12'0 0.0
2017-Oct-14 14:23N 33°45' W 118°12'0 0.0
2017-Oct-14 13:59N 33°45' W 118°12'0 0.6
2017-Oct-14 13:30N 33°45' W 118°12'3 5.6
2017-Oct-14 13:00N 33°42' W 118°11'4 8.1
2017-Oct-14 12:30N 33°39' W 118°13'4 8.4
2017-Oct-14 12:00N 33°36' W 118°18'5 9.8
2017-Oct-14 11:30N 33°37' W 118°23'510.1
2017-Oct-14 11:00N 33°40' W 118°28'510.2
2017-Oct-14 10:31N 33°42' W 118°34'611.4
2017-Oct-14 10:00N 33°45' W 118°40'611.6
2017-Oct-14 09:30N 33°48' W 118°46'612.0
2017-Oct-14 09:00N 33°51' W 118°52'612.1
2017-Oct-14 08:30N 33°54' W 118°58'612.3
2017-Oct-14 08:00N 33°57' W 119°05'713.3
2017-Oct-14 07:30N 34°01' W 119°12'713.3
2017-Oct-14 07:00N 34°03' W 119°19'713.6
2017-Oct-14 06:30N 34°05' W 119°27'713.3
2017-Oct-14 06:00N 34°07' W 119°35'713.8
2017-Oct-14 05:30N 34°09' W 119°43'714.4
2017-Oct-14 05:00N 34°10' W 119°51'714.7
2017-Oct-14 04:30N 34°12' W 119°60'713.6
2017-Oct-14 04:00N 34°14' W 120°08'815.7
2017-Oct-14 03:31N 34°16' W 120°17'815.7
2017-Oct-14 02:59N 34°18' W 120°26'714.7
2017-Oct-14 02:30N 34°20' W 120°35'714.4
2017-Oct-14 02:00N 34°22' W 120°43'814.4
2017-Oct-14 01:27N 34°24' W 120°52'814.2
2017-Oct-14 00:53N 34°30' W 120°59'814.5
2017-Oct-14 00:19N 34°36' W 121°05'515.1
2017-Oct-14 00:00N 34°40' W 121°09'816.1
2017-Oct-13 23:30N 34°47' W 121°14'816.0
2017-Oct-13 23:00N 34°53' W 121°20'816.2
2017-Oct-13 22:30N 34°60' W 121°26'816.5
2017-Oct-13 22:00N 35°06' W 121°32'816.7
2017-Oct-13 21:30N 35°13' W 121°38'917.1
2017-Oct-13 21:00N 35°20' W 121°44'917.8
2017-Oct-13 20:30N 35°27' W 121°50'917.7
2017-Oct-13 20:00N 35°35' W 121°57'917.5
2017-Oct-13 19:30N 35°42' W 122°02'918.2
2017-Oct-13 19:00N 35°51' W 122°06'918.4
2017-Oct-13 18:30N 35°59' W 122°10'918.2
2017-Oct-13 18:00N 36°08' W 122°14'918.0
2017-Oct-13 17:30N 36°16' W 122°18'1517.6
2017-Oct-13 16:39N 36°30' W 122°25'317.6
2017-Oct-13 16:30N 36°33' W 122°26'917.7
2017-Oct-13 16:00N 36°41' W 122°30'917.8
2017-Oct-13 15:30N 36°49' W 122°34'917.6
2017-Oct-13 15:00N 36°58' W 122°37'917.9
2017-Oct-13 14:30N 37°06' W 122°40'917.7
2017-Oct-13 14:00N 37°15' W 122°43'917.8
2017-Oct-13 13:31N 37°24' W 122°44'917.8
2017-Oct-13 13:00N 37°33' W 122°44'917.2
2017-Oct-13 12:30N 37°41' W 122°42'611.5
2017-Oct-13 12:00N 37°46' W 122°39'714.3
2017-Oct-13 11:30N 37°49' W 122°30'611.0
2017-Oct-13 11:00N 37°49' W 122°23'4 7.9
2017-Oct-13 10:30N 37°48' W 122°19'1 1.2
2017-Oct-13 10:01N 37°48' W 122°18'1 2.1
2017-Oct-13 09:29N 37°48' W 122°19'0 0.0
2017-Oct-13 08:59N 37°48' W 122°19'0 0.0
2017-Oct-13 08:29N 37°48' W 122°19'0 0.0
2017-Oct-13 07:59N 37°48' W 122°19'0 0.0
2017-Oct-13 07:29N 37°48' W 122°19'0 0.0
2017-Oct-13 06:59N 37°48' W 122°19'0 0.0
2017-Oct-13 06:29N 37°48' W 122°19'0 0.0
2017-Oct-13 05:59N 37°48' W 122°19'0 0.0
2017-Oct-13 05:29N 37°48' W 122°19'0 0.0
2017-Oct-13 04:59N 37°48' W 122°19'0 0.0
2017-Oct-13 04:29N 37°48' W 122°19'0 0.0
2017-Oct-13 03:59N 37°48' W 122°19'0 0.0
2017-Oct-13 03:29N 37°48' W 122°19'0 0.0
2017-Oct-13 02:59N 37°48' W 122°19'0 0.0
2017-Oct-13 02:29N 37°48' W 122°19'0 0.0
2017-Oct-13 01:59N 37°48' W 122°19'0 0.0
2017-Oct-13 01:29N 37°48' W 122°19'0 0.0
2017-Oct-13 00:59N 37°48' W 122°19'0 0.0
2017-Oct-13 00:29N 37°48' W 122°19'0 0.0
2017-Oct-12 23:59N 37°48' W 122°19'0 0.0
2017-Oct-12 23:29N 37°48' W 122°19'0 0.0
2017-Oct-12 22:59N 37°48' W 122°19'0 0.0
2017-Oct-12 22:29N 37°48' W 122°19'0 0.0
2017-Oct-12 21:59N 37°48' W 122°19'0 0.0
2017-Oct-12 21:29N 37°48' W 122°19'0 0.0
2017-Oct-12 20:59N 37°48' W 122°19'0 0.0
2017-Oct-12 20:29N 37°48' W 122°19'0 0.0
2017-Oct-12 19:59N 37°48' W 122°19'0 0.0
2017-Oct-12 19:29N 37°48' W 122°19'0 0.0
2017-Oct-12 18:59N 37°48' W 122°19'0 0.0
2017-Oct-12 18:29N 37°48' W 122°19'0 0.0
2017-Oct-12 17:59N 37°48' W 122°19'0 0.0
2017-Oct-12 17:29N 37°48' W 122°19'0 0.0
2017-Oct-12 16:59N 37°48' W 122°19'0 0.0
2017-Oct-12 16:29N 37°48' W 122°19'0 0.0
2017-Oct-12 15:59N 37°48' W 122°19'0 0.0
2017-Oct-12 15:29N 37°48' W 122°19'0 0.0
2017-Oct-12 14:59N 37°48' W 122°19'0 0.0
2017-Oct-12 14:29N 37°48' W 122°19'0 0.0
2017-Oct-12 13:59N 37°48' W 122°19'0 0.0
2017-Oct-12 13:29N 37°48' W 122°19'0 0.0
2017-Oct-12 12:59N 37°48' W 122°19'0 0.0
2017-Oct-12 12:29N 37°48' W 122°19'0 0.0
2017-Oct-12 11:59N 37°48' W 122°19'1 2.4
2017-Oct-12 11:31N 37°48' W 122°21'4 8.7
2017-Oct-12 11:01N 37°49' W 122°26'4 8.6
2017-Oct-12 10:31N 37°48' W 122°31'714.1
2017-Oct-12 10:00N 37°46' W 122°40'4 7.8
2017-Oct-12 09:30N 37°46' W 122°45'510.4
2017-Oct-12 09:00N 37°48' W 122°51'510.7
2017-Oct-12 08:30N 37°51' W 122°57'611.1
2017-Oct-12 08:00N 37°53' W 123°03'612.0
2017-Oct-12 07:30N 37°57' W 123°09'612.2
2017-Oct-12 07:00N 38°01' W 123°15'612.7
2017-Oct-12 06:30N 38°06' W 123°20'612.6
2017-Oct-12 06:00N 38°10' W 123°25'612.4
2017-Oct-12 05:30N 38°15' W 123°30'612.8
2017-Oct-12 05:00N 38°20' W 123°35'613.0
2017-Oct-12 04:30N 38°25' W 123°40'612.5
2017-Oct-12 04:00N 38°30' W 123°45'612.7
2017-Oct-12 03:30N 38°35' W 123°50'713.1
2017-Oct-12 03:00N 38°40' W 123°56'612.9
2017-Oct-12 02:30N 38°45' W 124°01'39914.6
2017-Oct-10 23:11N 45°20' W 125°18'214.8
2017-Oct-10 23:00N 45°22' W 125°18'814.8
2017-Oct-10 22:30N 45°30' W 125°18'715.0
2017-Oct-10 22:00N 45°37' W 125°18'715.0
2017-Oct-10 21:30N 45°45' W 125°19'814.9
2017-Oct-10 21:00N 45°52' W 125°19'714.8
2017-Oct-10 20:30N 45°60' W 125°19'815.3
2017-Oct-10 20:01N 46°07' W 125°19'815.2
2017-Oct-10 19:30N 46°15' W 125°19'715.0
2017-Oct-10 19:01N 46°22' W 125°20'815.6
2017-Oct-10 18:30N 46°30' W 125°20'815.6
2017-Oct-10 18:00N 46°38' W 125°20'815.4
2017-Oct-10 17:30N 46°45' W 125°20'815.5
2017-Oct-10 17:00N 46°53' W 125°20'7016.5
2017-Oct-10 12:47N 48°03' W 125°24'716.5
2017-Oct-10 12:20N 48°10' W 125°24'513.9
2017-Oct-10 11:58N 48°15' W 125°21'715.0
2017-Oct-10 11:30N 48°20' W 125°14'815.4
2017-Oct-10 11:00N 48°26' W 125°07'713.3
2017-Oct-10 10:30N 48°30' W 124°59'714.1
2017-Oct-10 10:00N 48°31' W 124°49'714.8
2017-Oct-10 09:31N 48°29' W 124°38'815.2
2017-Oct-10 09:01N 48°26' W 124°27'815.8
2017-Oct-10 08:31N 48°23' W 124°16'815.9
2017-Oct-10 08:00N 48°20' W 124°05'816.0
2017-Oct-10 07:30N 48°17' W 123°54'917.7
2017-Oct-10 07:01N 48°16' W 123°41'815.8
2017-Oct-10 06:30N 48°18' W 123°29'713.6
2017-Oct-10 06:00N 48°23' W 123°23'815.3
2017-Oct-10 05:31N 48°25' W 123°12'1121.9
2017-Oct-10 05:01N 48°36' W 123°14'916.9
2017-Oct-10 04:30N 48°44' W 123°09'815.3
2017-Oct-10 04:00N 48°51' W 123°03'1020.2
2017-Oct-10 03:30N 48°57' W 123°15'917.5
2017-Oct-10 03:00N 49°04' W 123°22'612.3
2017-Oct-10 02:30N 49°08' W 123°15'510.1
2017-Oct-10 02:00N 49°07' W 123°07'5 9.8
2017-Oct-10 01:30N 49°09' W 123°01'4 8.0
2017-Oct-10 01:00N 49°11' W 122°55'0 0.3
2017-Oct-10 00:30N 49°11' W 122°55'0 0.0
2017-Oct-10 00:00N 49°11' W 122°55'0 0.0
2017-Oct-09 23:30N 49°11' W 122°55'0 0.0
2017-Oct-09 23:00N 49°11' W 122°55'0 0.0
2017-Oct-09 22:27N 49°11' W 122°55'0 0.0
2017-Oct-09 22:00N 49°11' W 122°55'0 0.0
2017-Oct-09 21:30N 49°11' W 122°55'0 0.0
2017-Oct-09 21:00N 49°11' W 122°55'0 0.0
2017-Oct-09 20:30N 49°11' W 122°55'0 0.0
2017-Oct-09 20:00N 49°11' W 122°55'0 0.0
2017-Oct-09 19:30N 49°11' W 122°55'0 0.0
2017-Oct-09 19:00N 49°11' W 122°55'0 0.0
2017-Oct-09 18:27N 49°11' W 122°55'0 0.0
2017-Oct-09 18:00N 49°11' W 122°55'0 0.0
2017-Oct-09 17:30N 49°11' W 122°55'0 0.0
2017-Oct-09 17:00N 49°11' W 122°55'0 0.0
2017-Oct-09 16:30N 49°11' W 122°55'0 0.0
2017-Oct-09 16:00N 49°11' W 122°55'0 0.0
2017-Oct-09 15:30N 49°11' W 122°55'0 0.0
2017-Oct-09 15:00N 49°11' W 122°55'0 0.0
2017-Oct-09 14:30N 49°11' W 122°55'0 0.0
2017-Oct-09 14:00N 49°11' W 122°55'0 0.0
2017-Oct-09 13:30N 49°11' W 122°55'0 0.0
2017-Oct-09 13:00N 49°11' W 122°55'2 3.5
2017-Oct-09 12:30N 49°10' W 122°56'5 9.6
2017-Oct-09 12:00N 49°08' W 123°03'510.5
2017-Oct-09 11:30N 49°07' W 123°11'510.8
2017-Oct-09 11:00N 49°06' W 123°19'4 7.8
2017-Oct-09 10:31N 49°02' W 123°18'612.2
2017-Oct-09 10:01N 48°58' W 123°11'713.8
2017-Oct-09 09:30N 48°53' W 123°04'714.9
2017-Oct-09 09:00N 48°45' W 123°04'917.1
2017-Oct-09 08:30N 48°41' W 123°15'917.8
2017-Oct-09 08:00N 48°32' W 123°12'815.9
2017-Oct-09 07:30N 48°24' W 123°12'714.4
2017-Oct-09 07:00N 48°22' W 123°22'5 9.1
2017-Oct-09 06:30N 48°18' W 123°25'4 7.4
2017-Oct-09 06:00N 48°14' W 123°27'4 8.2
2017-Oct-09 05:30N 48°11' W 123°24'611.6
2017-Oct-09 05:00N 48°10' W 123°16'1020.4
2017-Oct-09 04:30N 48°12' W 123°01'1121.4
2017-Oct-09 04:00N 48°10' W 122°45'1121.1
2017-Oct-09 03:30N 48°01' W 122°37'1020.3
2017-Oct-09 03:00N 47°53' W 122°28'918.6
2017-Oct-09 02:30N 47°44' W 122°27'918.0
2017-Oct-09 02:00N 47°35' W 122°27'918.0
2017-Oct-09 01:30N 47°26' W 122°23'816.0
2017-Oct-09 01:00N 47°19' W 122°27'3 4.7
2017-Oct-09 00:25N 47°16' W 122°25'0 0.0
2017-Oct-08 23:55N 47°16' W 122°25'0 0.0
2017-Oct-08 23:22N 47°16' W 122°25'0 0.0
2017-Oct-08 22:55N 47°16' W 122°25'0 0.0
2017-Oct-08 22:28N 47°16' W 122°25'0 0.0
2017-Oct-08 21:58N 47°16' W 122°25'0 0.0
2017-Oct-08 21:25N 47°16' W 122°25'0 0.0
2017-Oct-08 20:58N 47°16' W 122°25'0 0.0
2017-Oct-08 20:28N 47°16' W 122°25'0 0.0
2017-Oct-08 19:58N 47°16' W 122°25'0 0.0
2017-Oct-08 19:28N 47°16' W 122°25'0 0.0
2017-Oct-08 18:58N 47°16' W 122°25'0 0.0
2017-Oct-08 18:28N 47°16' W 122°25'0 0.0
2017-Oct-08 17:58N 47°16' W 122°25'0 0.0
2017-Oct-08 17:28N 47°16' W 122°25'0 0.0
2017-Oct-08 16:58N 47°16' W 122°25'0 0.0
2017-Oct-08 16:28N 47°16' W 122°25'0 0.0
2017-Oct-08 15:58N 47°16' W 122°25'0 0.0
2017-Oct-08 15:28N 47°16' W 122°25'0 0.0
2017-Oct-08 14:58N 47°16' W 122°25'0 0.0
2017-Oct-08 14:28N 47°16' W 122°25'0 0.0
2017-Oct-08 13:58N 47°16' W 122°25'0 0.0
2017-Oct-08 13:28N 47°16' W 122°25'0 0.0
2017-Oct-08 12:58N 47°16' W 122°25'1 1.3
2017-Oct-08 12:30N 47°17' W 122°25'3 6.8
2017-Oct-08 12:00N 47°20' W 122°27'713.1
2017-Oct-08 11:31N 47°26' W 122°24'1020.7
2017-Oct-08 11:00N 47°36' W 122°28'1020.1
2017-Oct-08 10:30N 47°46' W 122°27'1020.3
2017-Oct-08 10:01N 47°56' W 122°31'1020.1
2017-Oct-08 09:30N 48°04' W 122°40'1020.3
2017-Oct-08 09:00N 48°11' W 122°51'1019.6
2017-Oct-08 08:31N 48°13' W 123°05'918.4
2017-Oct-08 08:01N 48°12' W 123°19'510.3
2017-Oct-08 07:30N 48°11' W 123°27'611.4
2017-Oct-08 07:00N 48°13' W 123°35'713.9
2017-Oct-08 06:30N 48°13' W 123°45'712.8
2017-Oct-08 05:59N 48°13' W 123°55'713.7
2017-Oct-08 05:30N 48°16' W 124°04'713.5
2017-Oct-08 05:00N 48°19' W 124°13'713.7
2017-Oct-08 04:30N 48°22' W 124°23'713.8
2017-Oct-08 04:00N 48°25' W 124°32'713.4
2017-Oct-08 03:30N 48°28' W 124°41'714.0
2017-Oct-08 03:00N 48°29' W 124°52'713.9
2017-Oct-08 02:30N 48°26' W 125°02'815.3
2017-Oct-08 02:00N 48°19' W 125°05'814.9
2017-Oct-08 01:28N 48°12' W 125°11'9114.0
2017-Oct-07 18:57N 46°41' W 125°20'614.4
2017-Oct-07 18:30N 46°35' W 125°20'714.4
2017-Oct-07 18:00N 46°27' W 125°20'714.3
2017-Oct-07 17:30N 46°20' W 125°20'1714.7
2017-Oct-07 16:21N 46°03' W 125°19'615.6
2017-Oct-07 15:58N 45°57' W 125°19'816.1
2017-Oct-07 15:30N 45°50' W 125°19'1019.4
2017-Oct-07 15:01N 45°40' W 125°18'1019.5
2017-Oct-07 14:30N 45°31' W 125°18'1019.0
2017-Oct-07 13:58N 45°20' W 125°18'919.1
2017-Oct-07 13:30N 45°11' W 125°18'1019.1
2017-Oct-07 12:59N 45°01' W 125°17'7119.3
2017-Oct-07 09:20N 43°51' W 125°15'720.1
2017-Oct-07 08:59N 43°44' W 125°16'3420.6
2017-Oct-07 07:21N 43°10' W 125°14'6020.0
2017-Oct-07 04:22N 42°11' W 125°12'718.8
2017-Oct-07 04:00N 42°04' W 125°13'1019.4
2017-Oct-07 03:29N 41°54' W 125°12'919.8
2017-Oct-07 03:00N 41°44' W 125°12'1019.3
2017-Oct-07 02:30N 41°35' W 125°12'1019.8
2017-Oct-07 02:00N 41°25' W 125°11'1019.6
2017-Oct-07 01:30N 41°15' W 125°11'1019.7
2017-Oct-07 01:00N 41°05' W 125°11'1019.6
2017-Oct-07 00:30N 40°55' W 125°10'1019.2
2017-Oct-07 00:01N 40°46' W 125°10'1019.3
2017-Oct-06 23:31N 40°36' W 125°10'918.9
2017-Oct-06 23:00N 40°27' W 125°09'9619.4
2017-Oct-06 18:04N 38°58' W 124°22'119.8
2017-Oct-06 18:00N 38°57' W 124°21'1419.8
2017-Oct-06 17:17N 38°44' W 124°14'519.5
2017-Oct-06 17:00N 38°39' W 124°11'918.6
2017-Oct-06 16:30N 38°31' W 124°04'1019.2
2017-Oct-06 16:00N 38°26' W 123°54'1019.2
2017-Oct-06 15:30N 38°21' W 123°43'1019.9
2017-Oct-06 15:00N 38°15' W 123°33'1020.0
2017-Oct-06 14:30N 38°10' W 123°22'1019.9
2017-Oct-06 14:00N 38°03' W 123°13'1020.0
2017-Oct-06 13:30N 37°56' W 123°04'1020.5
2017-Oct-06 13:00N 37°51' W 122°52'917.4
2017-Oct-06 12:30N 37°47' W 122°43'510.8
2017-Oct-06 12:00N 37°47' W 122°36'917.4
2017-Oct-06 11:31N 37°51' W 122°26'510.4
2017-Oct-06 11:00N 37°48' W 122°20'1 1.8
2017-Oct-06 10:29N 37°48' W 122°19'0 0.0
2017-Oct-06 09:59N 37°48' W 122°19'0 0.0
2017-Oct-06 09:29N 37°48' W 122°19'0 0.0
2017-Oct-06 08:59N 37°48' W 122°19'0 0.0
2017-Oct-06 08:29N 37°48' W 122°19'0 0.0
2017-Oct-06 07:59N 37°48' W 122°19'0 0.0
2017-Oct-06 07:29N 37°48' W 122°19'0 0.0
2017-Oct-06 06:59N 37°48' W 122°19'  

Dump ship's entire track history